Huvudsida
METAR-TAF:

METAR-TAF

Flygplatser :

Graz flygplats

Graz, Österrike

latitud: 47-00N, longitud: 015-26E, höjd: 340 m

Aktuellt väderrapport

Denna rapport gjordes för 43 minuter sedan, klockan 12:20 UTC
Vind 3 kt från sydost, varierande mellan ost och syd
Temperatur 10°C
Fuktighet 34%
Tryck 1029 hPa
Sikt 10 km eller mer
Inga moln under 1 500 m eller inga cumulonimbus

METAR: LOWG 221220Z 14003KT 090V190 CAVOK 10/M05 Q1029 R17/19//95 NOSIG

Tid: 14:03 (13:03 UTC)

Väderprognos

Denna rapport gjordes för 1 timme och 48 minuter sedan, klockan 11:15 UTC
Prognos gäller från 22 kl. 12 UTC till 23 kl. 12 UTC
Vind 2 kt varierande vindriktning
Sikt 10 km eller mer
Inga moln under 1 500 m eller inga cumulonimbus
Temporärt
från 22 kl. 12 UTC till 22 kl. 16 UTC
Vind 7 kt från syd/sydost
Blir
från 23 kl. 10 UTC till 23 kl. 12 UTC
Vind 6 kt från syd

TAF: LOWG 221115Z 2212/2312 VRB02KT CAVOK TX12/2312Z TNM00/2223Z TEMPO 2212/2216 15007KT BECMG 2310/2312 19006KT

Aktuella väderrapporter och prognoser från 4000 flygplatser (METAR- och TAF-rapporter).

De tillgängliga stationerna syns som gula och röda prickar på kartan.

För musen över prickarna för att se namnen på stationerna.

Klicka sedan för att få väderrapporter och prognoser.

För att ändra kartan: Klicka på de gröna knapparna med ett svart kors på för att zooma in; den gröna knappen med ett streck på för att zooma ut; eller på de gröna pilarna för angränsande kartor.


METAR-TAF: